Klein, Montana
Current Conditions -  °F | °C
As of 9:20 PM on Saturday 27 Dec 2014 (Local Time) from KMVH Reporting Station
Clear Clear  
Wind Chill:   Ceiling: Unl
Heat Index: 18°   Visibility: 10mi
Dew Point: 10°   Wind: 6mph
Humidity: 73%   Direction: 250°WSW
Pressure: 29.87"   Gusts: NA
Location:  46.4961°N, 108.568°W
Report Text: KMVH 280420Z AUTO 25005KT 10SM CLR M08/M12 A2987 RMK A01
Loading
Personal Weather Stations






























Interactive Weather Map New forecast layout! Learn more

10-Day Weather Forecast

Advertisements
Track Severe Weather on mobile